Time;durP1;ratioP1;P1;durP2;ratioP2;P2;SDS_P1;SDS_P2;PMS_P1;PMS_P2;Temp;Humidity;BMP_temperature;BMP_pressure;BME280_temperature;BME280_humidity;BME280_pressure;Samples;Min_cycle;Max_cycle;Signal;HPM_P1;HPM_P2
2022/07/26 00:00:24;;;;;;;3.78;3.20;;;;;;;;;;1657889;29;21656;-58
2022/07/26 00:01:17;;;;;;;3.22;3.03;;;;;;;;;;1661396;29;22183;-59
2022/07/26 00:02:08;;;;;;;3.70;3.50;;;;;;;;;;1657754;29;22329;-58
2022/07/26 00:03:00;;;;;;;3.85;3.58;;;;;;;;;;1658170;29;21636;-57
2022/07/26 00:03:51;;;;;;;3.90;3.60;;;;;;;;;;1661497;29;22421;-58
2022/07/26 00:04:43;;;;;;;3.50;3.25;;;;;;;;;;1661437;29;21602;-57
2022/07/26 00:05:37;;;;;;;4.03;3.70;;;;;;;;;;1658594;29;22008;-57
2022/07/26 00:06:29;;;;;;;4.65;3.35;;;;;;;;;;1661632;29;21631;-58
2022/07/26 00:07:21;;;;;;;3.72;3.42;;;;;;;;;;1661726;29;22814;-58
2022/07/26 00:08:13;;;;;;;3.58;3.28;;;;;;;;;;1658413;29;22401;-57
2022/07/26 00:09:04;;;;;;;3.47;3.17;;;;;;;;;;1660933;29;21600;-57
2022/07/26 00:09:56;;;;;;;3.45;3.15;;;;;;;;;;1661734;29;21605;-58
2022/07/26 00:10:49;;;;;;;3.95;3.70;;;;;;;;;;1660864;29;21657;-57
2022/07/26 00:11:43;;;;;;;3.55;3.35;;;;;;;;;;1658429;29;22270;-58
2022/07/26 00:12:34;;;;;;;3.58;3.28;;;;;;;;;;1659628;29;21774;-57
2022/07/26 00:13:27;;;;;;;3.75;3.45;;;;;;;;;;1660634;29;21887;-57
2022/07/26 00:14:18;;;;;;;3.55;3.35;;;;;;;;;;1657693;29;21812;-58
2022/07/26 00:15:11;;;;;;;3.90;3.60;;;;;;;;;;1661395;29;22271;-57
2022/07/26 00:16:03;;;;;;;3.40;3.10;;;;;;;;;;1654221;29;21652;-57
2022/07/26 00:16:55;;;;;;;3.97;3.67;;;;;;;;;;1651538;29;22416;-57
2022/07/26 00:17:47;;;;;;;4.03;3.20;;;;;;;;;;1658975;29;21780;-57
2022/07/26 00:18:39;;;;;;;3.63;3.35;;;;;;;;;;1660987;29;21676;-58
2022/07/26 00:19:30;;;;;;;4.57;3.45;;;;;;;;;;1658714;29;21639;-57
2022/07/26 00:20:23;;;;;;;3.53;3.22;;;;;;;;;;1660553;29;22141;-57
2022/07/26 00:21:14;;;;;;;6.32;3.75;;;;;;;;;;1659772;29;22374;-57
2022/07/26 00:23:18;;;;;;;3.55;3.35;;;;;;;;;;1662403;29;22726;-58
2022/07/26 00:24:09;;;;;;;3.53;3.25;;;;;;;;;;1660876;29;22754;-57
2022/07/26 00:25:02;;;;;;;3.67;3.38;;;;;;;;;;1658085;29;21655;-58
2022/07/26 00:25:55;;;;;;;3.45;3.25;;;;;;;;;;1662338;29;21781;-57
2022/07/26 00:26:48;;;;;;;3.00;2.80;;;;;;;;;;1660600;29;22638;-57
2022/07/26 00:27:40;;;;;;;3.20;3.00;;;;;;;;;;1658105;29;21978;-58
2022/07/26 00:28:32;;;;;;;3.63;3.33;;;;;;;;;;1661628;29;22589;-58
2022/07/26 00:29:23;;;;;;;3.33;3.03;;;;;;;;;;1661332;29;21838;-58
2022/07/26 00:30:15;;;;;;;3.10;2.90;;;;;;;;;;1658423;29;21614;-57
2022/07/26 00:31:08;;;;;;;3.08;2.88;;;;;;;;;;1660287;29;21784;-58
2022/07/26 00:32:00;;;;;;;2.90;2.70;;;;;;;;;;1657613;29;21717;-58
2022/07/26 00:32:51;;;;;;;3.53;3.28;;;;;;;;;;1658410;29;21624;-57
2022/07/26 00:33:44;;;;;;;3.13;2.90;;;;;;;;;;1659798;29;21652;-58
2022/07/26 00:34:35;;;;;;;3.45;3.20;;;;;;;;;;1660473;29;21672;-58
2022/07/26 00:35:27;;;;;;;3.40;2.83;;;;;;;;;;1658779;29;21971;-57
2022/07/26 00:36:18;;;;;;;3.17;2.97;;;;;;;;;;1660167;29;21780;-57
2022/07/26 00:37:10;;;;;;;3.88;3.58;;;;;;;;;;1661602;29;21747;-57
2022/07/26 00:38:02;;;;;;;3.38;3.08;;;;;;;;;;1659498;29;21618;-56
2022/07/26 00:38:54;;;;;;;3.63;3.40;;;;;;;;;;1656092;29;21889;-58
2022/07/26 00:39:45;;;;;;;3.58;3.28;;;;;;;;;;1661259;29;21659;-57
2022/07/26 00:40:37;;;;;;;3.15;2.90;;;;;;;;;;1661871;29;21727;-57
2022/07/26 00:41:29;;;;;;;3.20;2.95;;;;;;;;;;1658181;29;21740;-57
2022/07/26 00:42:22;;;;;;;4.57;3.20;;;;;;;;;;1658305;29;21609;-57
2022/07/26 00:43:13;;;;;;;3.50;3.00;;;;;;;;;;1661324;29;21804;-57
2022/07/26 00:44:06;;;;;;;3.30;3.03;;;;;;;;;;1659534;29;21641;-57
2022/07/26 00:44:58;;;;;;;3.30;3.10;;;;;;;;;;1656650;29;21604;-58
2022/07/26 00:45:50;;;;;;;3.42;3.13;;;;;;;;;;1654482;29;21814;-57
2022/07/26 00:46:42;;;;;;;3.28;3.08;;;;;;;;;;1652227;29;22316;-57
2022/07/26 00:47:34;;;;;;;3.15;2.95;;;;;;;;;;1656848;29;22393;-58
2022/07/26 00:48:25;;;;;;;3.50;3.30;;;;;;;;;;1661468;29;21758;-57
2022/07/26 00:49:18;;;;;;;3.03;2.83;;;;;;;;;;1660392;29;21798;-59
2022/07/26 00:50:12;;;;;;;2.67;2.55;;;;;;;;;;1658435;29;22460;-58
2022/07/26 00:51:05;;;;;;;3.33;3.10;;;;;;;;;;1660599;29;22499;-57
2022/07/26 00:51:56;;;;;;;2.47;2.38;;;;;;;;;;1659289;29;21730;-58
2022/07/26 00:52:50;;;;;;;3.60;3.30;;;;;;;;;;1658659;29;22634;-58
2022/07/26 00:53:41;;;;;;;3.70;3.20;;;;;;;;;;1660875;29;22020;-58
2022/07/26 00:54:34;;;;;;;3.22;2.92;;;;;;;;;;1653277;29;21638;-58
2022/07/26 00:55:26;;;;;;;3.25;3.05;;;;;;;;;;1650284;29;22669;-57
2022/07/26 00:56:18;;;;;;;4.43;3.00;;;;;;;;;;1658920;29;22181;-57
2022/07/26 00:57:10;;;;;;;2.83;2.63;;;;;;;;;;1662320;29;21939;-57
2022/07/26 00:58:05;;;;;;;2.80;2.60;;;;;;;;;;1659712;29;21583;-57
2022/07/26 00:58:56;;;;;;;3.10;2.90;;;;;;;;;;1659744;29;21679;-57
2022/07/26 00:59:48;;;;;;;3.67;3.00;;;;;;;;;;1661368;29;22578;-57
2022/07/26 01:00:40;;;;;;;4.88;3.03;;;;;;;;;;1659381;29;22476;-57
2022/07/26 01:01:32;;;;;;;2.83;2.63;;;;;;;;;;1657894;29;21755;-58
2022/07/26 01:02:23;;;;;;;2.80;2.60;;;;;;;;;;1659254;29;21700;-58
2022/07/26 01:03:15;;;;;;;3.00;2.80;;;;;;;;;;1660474;29;21953;-57
2022/07/26 01:04:06;;;;;;;3.13;2.90;;;;;;;;;;1657713;29;22341;-58
2022/07/26 01:04:59;;;;;;;3.30;3.00;;;;;;;;;;1661319;29;22096;-58
2022/07/26 01:05:50;;;;;;;3.22;3.03;;;;;;;;;;1660583;29;21705;-57
2022/07/26 01:06:42;;;;;;;4.03;2.75;;;;;;;;;;1657781;29;22593;-58
2022/07/26 01:07:35;;;;;;;7.53;3.88;;;;;;;;;;1661385;29;21652;-58
2022/07/26 01:08:27;;;;;;;3.22;3.03;;;;;;;;;;1646108;29;21762;-58
2022/07/26 01:09:19;;;;;;;3.08;2.88;;;;;;;;;;1651092;29;21656;-57
2022/07/26 01:10:12;;;;;;;2.92;2.70;;;;;;;;;;1658909;29;21668;-57
2022/07/26 01:11:03;;;;;;;3.35;3.05;;;;;;;;;;1653021;29;22181;-59
2022/07/26 01:11:56;;;;;;;2.83;2.63;;;;;;;;;;1658175;29;21635;-57
2022/07/26 01:12:47;;;;;;;2.78;2.58;;;;;;;;;;1661307;29;21653;-58
2022/07/26 01:13:47;;;;;;;7.18;2.72;;;;;;;;;;1651824;29;21593;-58
2022/07/26 01:14:42;;;;;;;;;;;;;;;;;;1650487;29;21609;-58
2022/07/26 01:15:34;;;;;;;4.30;2.67;;;;;;;;;;1660074;29;22224;-58
2022/07/26 01:16:25;;;;;;;3.03;2.83;;;;;;;;;;1660159;29;21653;-58
2022/07/26 01:17:17;;;;;;;2.58;2.47;;;;;;;;;;1657988;29;22524;-57
2022/07/26 01:18:09;;;;;;;3.85;2.75;;;;;;;;;;1662087;29;21886;-58
2022/07/26 01:19:01;;;;;;;3.03;2.65;;;;;;;;;;1659602;29;22494;-57
2022/07/26 01:19:52;;;;;;;2.92;2.72;;;;;;;;;;1657719;29;21737;-57
2022/07/26 01:20:45;;;;;;;3.65;2.83;;;;;;;;;;1661925;29;22200;-57
2022/07/26 01:21:38;;;;;;;4.35;2.63;;;;;;;;;;1658335;29;21738;-58
2022/07/26 01:22:31;;;;;;;3.00;2.80;;;;;;;;;;1657721;29;22533;-57
2022/07/26 01:23:22;;;;;;;3.53;2.95;;;;;;;;;;1659257;29;21713;-58
2022/07/26 01:24:14;;;;;;;2.65;2.45;;;;;;;;;;1661225;29;21656;-57
2022/07/26 01:25:07;;;;;;;3.05;2.70;;;;;;;;;;1662184;29;21658;-57
2022/07/26 01:25:59;;;;;;;2.85;2.65;;;;;;;;;;1661984;29;21808;-58
2022/07/26 01:26:50;;;;;;;3.08;2.88;;;;;;;;;;1660414;29;21920;-58
2022/07/26 01:27:43;;;;;;;5.35;2.70;;;;;;;;;;1657884;29;21783;-57
2022/07/26 01:28:36;;;;;;;2.33;2.22;;;;;;;;;;1660865;29;21713;-57
2022/07/26 01:29:28;;;;;;;2.97;2.78;;;;;;;;;;1660453;29;21744;-58
2022/07/26 01:30:19;;;;;;;2.65;2.45;;;;;;;;;;1657744;29;22471;-58
2022/07/26 01:31:12;;;;;;;2.97;2.78;;;;;;;;;;1661256;29;22259;-57
2022/07/26 01:32:04;;;;;;;2.53;2.40;;;;;;;;;;1659237;29;21661;-57
2022/07/26 01:32:56;;;;;;;2.60;2.40;;;;;;;;;;1657824;29;21624;-58
2022/07/26 01:33:48;;;;;;;3.00;2.80;;;;;;;;;;1661013;29;21634;-57
2022/07/26 01:34:40;;;;;;;3.53;2.88;;;;;;;;;;1659802;29;21596;-57
2022/07/26 01:35:32;;;;;;;2.90;2.70;;;;;;;;;;1657531;29;22019;-57
2022/07/26 01:36:24;;;;;;;2.72;2.53;;;;;;;;;;1661372;29;21768;-58
2022/07/26 01:37:17;;;;;;;5.65;2.88;;;;;;;;;;1656617;29;22335;-58
2022/07/26 01:38:09;;;;;;;3.03;2.83;;;;;;;;;;1657867;29;22447;-57
2022/07/26 01:39:00;;;;;;;3.00;2.80;;;;;;;;;;1661430;29;21662;-57
2022/07/26 01:39:52;;;;;;;2.70;2.50;;;;;;;;;;1661497;29;21652;-57
2022/07/26 01:40:43;;;;;;;3.22;3.03;;;;;;;;;;1661666;29;21721;-57
2022/07/26 01:41:36;;;;;;;3.17;2.55;;;;;;;;;;1658484;29;22068;-57
2022/07/26 01:42:27;;;;;;;3.15;2.95;;;;;;;;;;1658606;29;22048;-58
2022/07/26 01:43:19;;;;;;;7.38;2.60;;;;;;;;;;1660908;29;22617;-58
2022/07/26 01:44:11;;;;;;;2.38;2.28;;;;;;;;;;1657971;29;22400;-57
2022/07/26 01:45:04;;;;;;;3.75;2.83;;;;;;;;;;1660373;29;22409;-59
2022/07/26 01:45:55;;;;;;;2.80;2.60;;;;;;;;;;1661081;29;21917;-57
2022/07/26 01:46:47;;;;;;;6.50;2.92;;;;;;;;;;1658517;29;22071;-57
2022/07/26 01:47:39;;;;;;;2.50;2.30;;;;;;;;;;1659529;29;21611;-58
2022/07/26 01:48:31;;;;;;;2.80;2.53;;;;;;;;;;1661053;29;22275;-57
2022/07/26 01:49:22;;;;;;;5.03;2.75;;;;;;;;;;1659003;29;21746;-57
2022/07/26 01:50:15;;;;;;;2.47;2.28;;;;;;;;;;1658999;29;22294;-57
2022/07/26 01:51:06;;;;;;;5.85;2.90;;;;;;;;;;1660714;29;21603;-57
2022/07/26 01:51:58;;;;;;;2.47;2.30;;;;;;;;;;1658130;29;21755;-58
2022/07/26 01:52:51;;;;;;;2.33;2.17;;;;;;;;;;1658672;29;21643;-57
2022/07/26 01:53:44;;;;;;;2.55;2.45;;;;;;;;;;1660621;29;21595;-58
2022/07/26 01:54:36;;;;;;;2.38;2.28;;;;;;;;;;1659995;29;21689;-57
2022/07/26 01:55:28;;;;;;;2.75;2.08;;;;;;;;;;1658045;29;22062;-58
2022/07/26 01:56:19;;;;;;;3.92;2.75;;;;;;;;;;1661194;29;21687;-57
2022/07/26 01:57:11;;;;;;;2.55;2.40;;;;;;;;;;1660284;29;21729;-58
2022/07/26 01:58:04;;;;;;;2.95;2.75;;;;;;;;;;1658074;29;22498;-57
2022/07/26 01:58:56;;;;;;;2.53;2.33;;;;;;;;;;1660973;29;21600;-57
2022/07/26 01:59:47;;;;;;;2.58;2.38;;;;;;;;;;1660104;29;21703;-58
2022/07/26 02:00:39;;;;;;;2.80;2.58;;;;;;;;;;1657553;29;21969;-57
2022/07/26 02:01:30;;;;;;;4.75;2.75;;;;;;;;;;1660112;29;21685;-57
2022/07/26 02:02:23;;;;;;;2.42;2.22;;;;;;;;;;1656754;29;22292;-57
2022/07/26 02:03:15;;;;;;;5.00;2.42;;;;;;;;;;1657806;29;21613;-58
2022/07/26 02:04:07;;;;;;;3.40;3.05;;;;;;;;;;1661798;29;22286;-57
2022/07/26 02:04:58;;;;;;;2.95;2.78;;;;;;;;;;1659439;29;21952;-58
2022/07/26 02:05:50;;;;;;;2.40;2.20;;;;;;;;;;1657931;29;22462;-58
2022/07/26 02:06:42;;;;;;;2.65;2.30;;;;;;;;;;1661374;29;21950;-58
2022/07/26 02:07:40;;;;;;;3.78;2.42;;;;;;;;;;1656437;29;21776;-57
2022/07/26 02:08:34;;;;;;;8.23;2.75;;;;;;;;;;1657773;29;22270;-57
2022/07/26 02:09:25;;;;;;;2.60;2.40;;;;;;;;;;1661749;29;21799;-57
2022/07/26 02:10:17;;;;;;;2.60;2.42;;;;;;;;;;1661346;29;21765;-58
2022/07/26 02:11:09;;;;;;;3.53;2.38;;;;;;;;;;1658189;29;21850;-57
2022/07/26 02:12:01;;;;;;;2.50;2.30;;;;;;;;;;1651076;29;22018;-58
2022/07/26 02:12:53;;;;;;;2.67;2.47;;;;;;;;;;1654430;29;21657;-57
2022/07/26 02:13:44;;;;;;;2.42;2.22;;;;;;;;;;1656352;29;21612;-57
2022/07/26 02:14:37;;;;;;;3.60;2.15;;;;;;;;;;1657401;29;22548;-58
2022/07/26 02:15:28;;;;;;;2.83;2.63;;;;;;;;;;1661285;29;21893;-58
2022/07/26 02:16:20;;;;;;;2.70;2.50;;;;;;;;;;1660370;29;21654;-58
2022/07/26 02:17:12;;;;;;;3.22;2.60;;;;;;;;;;1657851;29;22005;-57
2022/07/26 02:18:04;;;;;;;2.78;2.53;;;;;;;;;;1662092;29;22467;-57
2022/07/26 02:18:55;;;;;;;2.60;2.40;;;;;;;;;;1659277;29;21670;-57
2022/07/26 02:19:47;;;;;;;2.53;2.33;;;;;;;;;;1657007;29;22034;-58
2022/07/26 02:20:39;;;;;;;2.72;2.50;;;;;;;;;;1661696;29;22392;-58
2022/07/26 02:21:31;;;;;;;3.17;2.38;;;;;;;;;;1650982;29;21663;-58
2022/07/26 02:22:23;;;;;;;2.35;2.25;;;;;;;;;;1650626;29;21858;-58
2022/07/26 02:23:14;;;;;;;2.40;2.20;;;;;;;;;;1658521;29;22410;-57
2022/07/26 02:24:08;;;;;;;2.63;2.42;;;;;;;;;;1660210;29;22517;-58
2022/07/26 02:25:00;;;;;;;4.65;2.65;;;;;;;;;;1658196;29;22026;-57
2022/07/26 02:25:53;;;;;;;2.95;2.75;;;;;;;;;;1662203;29;21651;-58
2022/07/26 02:26:44;;;;;;;5.07;2.33;;;;;;;;;;1660684;29;22059;-57
2022/07/26 02:27:36;;;;;;;2.53;2.33;;;;;;;;;;1661739;29;21625;-58
2022/07/26 02:28:28;;;;;;;4.88;2.45;;;;;;;;;;1660167;29;22684;-57
2022/07/26 02:29:20;;;;;;;4.68;2.55;;;;;;;;;;1657873;29;21849;-58
2022/07/26 02:30:12;;;;;;;2.90;2.70;;;;;;;;;;1661536;29;21599;-57
2022/07/26 02:31:04;;;;;;;2.30;2.10;;;;;;;;;;1659078;29;21597;-57
2022/07/26 02:31:56;;;;;;;3.00;2.67;;;;;;;;;;1656735;29;21663;-56
2022/07/26 02:32:48;;;;;;;2.15;2.00;;;;;;;;;;1661212;29;22560;-57
2022/07/26 02:33:40;;;;;;;2.75;2.55;;;;;;;;;;1659326;29;21806;-57
2022/07/26 02:34:31;;;;;;;3.88;2.40;;;;;;;;;;1657546;29;21670;-58
2022/07/26 02:35:24;;;;;;;2.03;1.75;;;;;;;;;;1661746;29;22044;-58
2022/07/26 02:36:15;;;;;;;2.47;2.10;;;;;;;;;;1659788;29;21717;-57
2022/07/26 02:37:07;;;;;;;2.50;2.30;;;;;;;;;;1658034;29;21672;-58
2022/07/26 02:38:01;;;;;;;2.63;2.42;;;;;;;;;;1661556;29;21728;-58
2022/07/26 02:38:54;;;;;;;2.53;2.33;;;;;;;;;;1649788;29;22471;-58
2022/07/26 02:39:46;;;;;;;2.17;2.08;;;;;;;;;;1648327;29;21700;-57
2022/07/26 02:40:40;;;;;;;2.80;2.53;;;;;;;;;;1652605;29;22211;-59
2022/07/26 02:41:31;;;;;;;2.60;2.40;;;;;;;;;;1658491;29;21824;-58
2022/07/26 02:42:23;;;;;;;3.05;2.45;;;;;;;;;;1649976;29;22415;-57
2022/07/26 02:43:15;;;;;;;4.90;2.25;;;;;;;;;;1653794;29;21618;-58
2022/07/26 02:44:09;;;;;;;4.43;2.67;;;;;;;;;;1655814;29;21582;-58
2022/07/26 02:45:00;;;;;;;3.00;2.72;;;;;;;;;;1659822;29;21573;-58
2022/07/26 02:45:53;;;;;;;2.17;2.08;;;;;;;;;;1660845;29;21587;-57
2022/07/26 02:46:44;;;;;;;2.50;2.03;;;;;;;;;;1658290;29;21925;-57
2022/07/26 02:47:44;;;;;;;2.58;2.38;;;;;;;;;;1660029;29;21581;-57
2022/07/26 02:48:36;;;;;;;;;;;;;;;;;;1660935;29;22494;-57
2022/07/26 02:49:27;;;;;;;3.40;2.22;;;;;;;;;;1658578;29;21773;-57
2022/07/26 02:50:21;;;;;;;3.70;2.35;;;;;;;;;;1659170;29;22328;-58
2022/07/26 02:51:12;;;;;;;2.17;1.90;;;;;;;;;;1659387;29;21608;-57
2022/07/26 02:52:05;;;;;;;8.60;2.20;;;;;;;;;;1657937;29;22654;-57
2022/07/26 02:52:57;;;;;;;2.65;2.45;;;;;;;;;;1659189;29;22450;-57
2022/07/26 02:53:49;;;;;;;2.47;2.28;;;;;;;;;;1660665;29;22037;-57
2022/07/26 02:54:40;;;;;;;2.53;2.33;;;;;;;;;;1658346;29;21733;-58
2022/07/26 02:55:34;;;;;;;2.67;2.47;;;;;;;;;;1655618;29;22642;-57
2022/07/26 02:56:25;;;;;;;5.30;2.65;;;;;;;;;;1660609;29;22120;-58
2022/07/26 02:57:17;;;;;;;2.28;2.17;;;;;;;;;;1659939;29;21594;-57
2022/07/26 02:58:08;;;;;;;2.60;2.40;;;;;;;;;;1659318;29;22102;-57
2022/07/26 02:59:01;;;;;;;2.85;2.60;;;;;;;;;;1662018;29;22638;-57
2022/07/26 02:59:52;;;;;;;2.25;2.05;;;;;;;;;;1660744;29;21606;-57
2022/07/26 03:00:44;;;;;;;2.25;2.15;;;;;;;;;;1658551;29;22439;-57
2022/07/26 03:01:37;;;;;;;2.33;2.22;;;;;;;;;;1660514;29;21917;-57
2022/07/26 03:02:30;;;;;;;2.50;2.40;;;;;;;;;;1657879;29;22597;-57
2022/07/26 03:03:21;;;;;;;2.00;1.90;;;;;;;;;;1658786;29;21609;-58
2022/07/26 03:04:13;;;;;;;4.13;2.38;;;;;;;;;;1661927;29;21693;-57
2022/07/26 03:05:06;;;;;;;2.40;2.20;;;;;;;;;;1660732;29;21853;-58
2022/07/26 03:05:58;;;;;;;3.25;2.80;;;;;;;;;;1658954;29;22638;-58
2022/07/26 03:06:49;;;;;;;3.70;2.35;;;;;;;;;;1662265;29;22034;-58
2022/07/26 03:07:42;;;;;;;2.00;1.90;;;;;;;;;;1651969;29;22572;-58
2022/07/26 03:08:33;;;;;;;2.67;2.38;;;;;;;;;;1655766;29;21720;-57
2022/07/26 03:09:25;;;;;;;2.75;2.55;;;;;;;;;;1662810;29;21775;-57
2022/07/26 03:10:17;;;;;;;3.22;2.47;;;;;;;;;;1661903;29;21610;-57
2022/07/26 03:11:10;;;;;;;3.92;2.42;;;;;;;;;;1659741;29;21608;-57
2022/07/26 03:12:02;;;;;;;2.58;2.13;;;;;;;;;;1658056;29;21718;-58
2022/07/26 03:12:54;;;;;;;2.88;2.67;;;;;;;;;;1662723;29;22264;-58
2022/07/26 03:13:45;;;;;;;4.25;2.47;;;;;;;;;;1659798;29;22021;-58
2022/07/26 03:14:37;;;;;;;10.98;2.15;;;;;;;;;;1658113;29;21646;-58
2022/07/26 03:15:28;;;;;;;6.68;2.92;;;;;;;;;;1661978;29;21789;-58
2022/07/26 03:16:21;;;;;;;3.17;2.30;;;;;;;;;;1661595;29;21636;-58
2022/07/26 03:17:12;;;;;;;2.40;2.30;;;;;;;;;;1658530;29;21986;-58
2022/07/26 03:18:04;;;;;;;2.70;2.50;;;;;;;;;;1662988;29;22517;-58
2022/07/26 03:18:56;;;;;;;4.05;2.30;;;;;;;;;;1660248;29;22584;-58
2022/07/26 03:19:48;;;;;;;2.78;2.58;;;;;;;;;;1658245;29;22289;-57
2022/07/26 03:20:39;;;;;;;3.45;2.42;;;;;;;;;;1662423;29;22615;-57
2022/07/26 03:21:31;;;;;;;4.72;2.13;;;;;;;;;;1659097;29;21742;-57
2022/07/26 03:22:23;;;;;;;2.90;2.65;;;;;;;;;;1658011;29;22110;-57
2022/07/26 03:23:15;;;;;;;2.35;2.15;;;;;;;;;;1662573;29;21608;-57
2022/07/26 03:24:06;;;;;;;2.35;1.98;;;;;;;;;;1661045;29;22393;-57
2022/07/26 03:24:59;;;;;;;2.60;2.40;;;;;;;;;;1658915;29;22609;-57
2022/07/26 03:25:50;;;;;;;2.58;2.38;;;;;;;;;;1661858;29;22337;-57
2022/07/26 03:26:43;;;;;;;2.60;2.40;;;;;;;;;;1661371;29;21913;-57
2022/07/26 03:27:35;;;;;;;5.35;2.08;;;;;;;;;;1658409;29;21948;-58
2022/07/26 03:28:30;;;;;;;3.08;2.28;;;;;;;;;;1661387;29;21986;-58
2022/07/26 03:29:21;;;;;;;2.08;1.92;;;;;;;;;;1662980;29;22641;-57
2022/07/26 03:30:14;;;;;;;3.47;2.22;;;;;;;;;;1658957;29;21713;-58
2022/07/26 03:31:05;;;;;;;2.50;2.20;;;;;;;;;;1660220;29;21643;-58
2022/07/26 03:31:57;;;;;;;2.13;2.03;;;;;;;;;;1658359;29;21604;-58
2022/07/26 03:32:48;;;;;;;2.35;2.25;;;;;;;;;;1658697;29;22709;-57
2022/07/26 03:33:41;;;;;;;3.03;2.72;;;;;;;;;;1660197;29;22465;-57
2022/07/26 03:34:32;;;;;;;2.63;2.45;;;;;;;;;;1661790;29;21668;-58
2022/07/26 03:35:25;;;;;;;2.40;2.10;;;;;;;;;;1659287;29;21588;-57
2022/07/26 03:36:17;;;;;;;3.83;2.63;;;;;;;;;;1653320;29;21591;-58
2022/07/26 03:37:08;;;;;;;2.35;2.22;;;;;;;;;;1654926;29;21862;-57
2022/07/26 03:38:01;;;;;;;2.70;2.50;;;;;;;;;;1657631;29;21729;-58
2022/07/26 03:38:52;;;;;;;2.67;2.35;;;;;;;;;;1659440;29;21989;-57
2022/07/26 03:39:44;;;;;;;2.72;2.50;;;;;;;;;;1661262;29;21900;-58
2022/07/26 03:40:35;;;;;;;2.53;2.33;;;;;;;;;;1662540;29;21705;-58
2022/07/26 03:41:30;;;;;;;2.70;2.50;;;;;;;;;;1658894;29;21618;-58
2022/07/26 03:42:22;;;;;;;3.50;2.55;;;;;;;;;;1658458;29;21838;-58
2022/07/26 03:43:15;;;;;;;3.28;2.33;;;;;;;;;;1661720;29;22510;-57
2022/07/26 03:44:06;;;;;;;2.80;2.58;;;;;;;;;;1660394;29;21889;-58
2022/07/26 03:44:58;;;;;;;5.20;2.38;;;;;;;;;;1660187;29;22020;-58
2022/07/26 03:45:50;;;;;;;3.10;2.63;;;;;;;;;;1661564;29;22440;-57
2022/07/26 03:46:42;;;;;;;2.63;2.42;;;;;;;;;;1659378;29;21615;-58
2022/07/26 03:47:34;;;;;;;6.00;2.50;;;;;;;;;;1656652;29;22325;-58
2022/07/26 03:48:26;;;;;;;5.05;2.45;;;;;;;;;;1661530;29;21704;-58
2022/07/26 03:49:17;;;;;;;8.15;2.60;;;;;;;;;;1660626;29;22881;-58
2022/07/26 03:50:12;;;;;;;3.50;2.13;;;;;;;;;;1658791;29;21607;-58
2022/07/26 03:51:03;;;;;;;5.60;2.33;;;;;;;;;;1661633;29;21668;-58
2022/07/26 03:51:55;;;;;;;4.05;2.97;;;;;;;;;;1658993;29;21660;-58
2022/07/26 03:52:47;;;;;;;3.17;2.78;;;;;;;;;;1659018;29;22515;-58
2022/07/26 03:53:38;;;;;;;3.47;2.35;;;;;;;;;;1661259;29;21619;-58
2022/07/26 03:54:30;;;;;;;6.05;2.45;;;;;;;;;;1660719;29;21834;-58
2022/07/26 03:56:31;;;;;;;2.72;2.53;;;;;;;;;;1661622;29;21650;-58
2022/07/26 03:57:24;;;;;;;3.05;2.40;;;;;;;;;;1659550;29;22361;-58
2022/07/26 03:58:17;;;;;;;3.95;2.97;;;;;;;;;;1659898;29;22800;-58
2022/07/26 03:59:10;;;;;;;2.60;2.40;;;;;;;;;;1661750;29;21606;-58
2022/07/26 04:00:02;;;;;;;3.17;2.80;;;;;;;;;;1659774;29;21623;-57
2022/07/26 04:00:54;;;;;;;3.45;2.90;;;;;;;;;;1653333;29;21696;-57
2022/07/26 04:01:47;;;;;;;3.05;2.80;;;;;;;;;;1657979;29;21856;-57
2022/07/26 04:02:38;;;;;;;3.05;2.72;;;;;;;;;;1658193;29;21931;-58
2022/07/26 04:03:30;;;;;;;3.40;2.50;;;;;;;;;;1659134;29;22607;-57
2022/07/26 04:04:22;;;;;;;3.00;2.72;;;;;;;;;;1661870;29;22493;-57
2022/07/26 04:05:14;;;;;;;2.80;2.55;;;;;;;;;;1660656;29;21965;-58
2022/07/26 04:06:06;;;;;;;4.25;2.78;;;;;;;;;;1660797;29;21696;-57
2022/07/26 04:06:58;;;;;;;3.92;2.78;;;;;;;;;;1661594;29;22254;-57
2022/07/26 04:07:49;;;;;;;3.45;3.15;;;;;;;;;;1660599;29;22496;-58
2022/07/26 04:08:41;;;;;;;2.95;2.75;;;;;;;;;;1657714;29;21751;-58
2022/07/26 04:09:33;;;;;;;4.20;2.60;;;;;;;;;;1661569;29;21603;-58
2022/07/26 04:10:25;;;;;;;4.03;2.78;;;;;;;;;;1662468;29;22241;-57
2022/07/26 04:11:16;;;;;;;2.75;2.55;;;;;;;;;;1658234;29;21600;-57
2022/07/26 04:12:09;;;;;;;5.05;3.05;;;;;;;;;;1658106;29;22742;-57
2022/07/26 04:13:01;;;;;;;2.60;2.40;;;;;;;;;;1662581;29;22496;-57
2022/07/26 04:13:54;;;;;;;2.80;2.60;;;;;;;;;;1658475;29;21705;-58
2022/07/26 04:14:45;;;;;;;3.05;2.72;;;;;;;;;;1659282;29;22141;-56
2022/07/26 04:15:37;;;;;;;2.80;2.60;;;;;;;;;;1661201;29;21616;-56
2022/07/26 04:16:29;;;;;;;2.70;2.50;;;;;;;;;;1660664;29;21640;-57
2022/07/26 04:17:21;;;;;;;3.35;3.05;;;;;;;;;;1658419;29;21649;-57
2022/07/26 04:18:13;;;;;;;2.88;2.67;;;;;;;;;;1661527;29;22493;-58
2022/07/26 04:19:05;;;;;;;3.60;2.85;;;;;;;;;;1653374;29;21703;-58
2022/07/26 04:19:57;;;;;;;3.20;2.95;;;;;;;;;;1651314;29;21608;-57
2022/07/26 04:20:49;;;;;;;3.22;3.03;;;;;;;;;;1659239;29;22457;-58
2022/07/26 04:21:41;;;;;;;2.97;2.78;;;;;;;;;;1656113;29;21913;-56
2022/07/26 04:22:33;;;;;;;2.72;2.53;;;;;;;;;;1657476;29;21900;-57
2022/07/26 04:23:25;;;;;;;3.40;3.10;;;;;;;;;;1662532;29;21919;-58
2022/07/26 04:24:17;;;;;;;2.53;2.33;;;;;;;;;;1660095;29;21791;-58
2022/07/26 04:25:09;;;;;;;3.22;3.03;;;;;;;;;;1655225;29;21606;-58
2022/07/26 04:26:02;;;;;;;3.38;3.08;;;;;;;;;;1662301;29;21662;-57
2022/07/26 04:26:53;;;;;;;2.70;2.55;;;;;;;;;;1660181;29;21837;-57
2022/07/26 04:27:45;;;;;;;3.00;2.80;;;;;;;;;;1657667;29;21891;-57
2022/07/26 04:28:38;;;;;;;5.80;2.97;;;;;;;;;;1661986;29;22520;-58
2022/07/26 04:29:30;;;;;;;2.95;2.75;;;;;;;;;;1660591;29;22032;-58
2022/07/26 04:30:21;;;;;;;2.90;2.70;;;;;;;;;;1651338;29;21764;-57
2022/07/26 04:31:13;;;;;;;2.60;2.40;;;;;;;;;;1653309;29;22420;-56
2022/07/26 04:32:05;;;;;;;2.50;2.30;;;;;;;;;;1655421;29;21618;-57
2022/07/26 04:32:57;;;;;;;3.38;3.10;;;;;;;;;;1658378;29;21778;-58
2022/07/26 04:33:49;;;;;;;2.60;2.40;;;;;;;;;;1660749;29;21607;-57
2022/07/26 04:34:41;;;;;;;2.67;2.47;;;;;;;;;;1662041;29;21588;-57
2022/07/26 04:35:32;;;;;;;3.97;2.67;;;;;;;;;;1658228;29;21648;-58
2022/07/26 04:36:25;;;;;;;3.00;2.80;;;;;;;;;;1660751;29;21736;-57
2022/07/26 04:37:16;;;;;;;2.90;2.67;;;;;;;;;;1661478;29;21656;-57
2022/07/26 04:38:08;;;;;;;3.85;3.55;;;;;;;;;;1658686;29;21679;-57
2022/07/26 04:38:59;;;;;;;2.83;2.60;;;;;;;;;;1660319;29;22693;-58
2022/07/26 04:39:52;;;;;;;3.70;2.83;;;;;;;;;;1661110;29;21625;-58
2022/07/26 04:40:43;;;;;;;2.90;2.70;;;;;;;;;;1661225;29;22369;-58
2022/07/26 04:41:36;;;;;;;3.13;2.88;;;;;;;;;;1658845;29;21606;-58
2022/07/26 04:42:27;;;;;;;3.10;2.80;;;;;;;;;;1658818;29;21677;-58
2022/07/26 04:43:18;;;;;;;3.00;2.70;;;;;;;;;;1661376;29;21654;-58
2022/07/26 04:44:12;;;;;;;3.33;3.03;;;;;;;;;;1658866;29;22283;-57
2022/07/26 04:45:05;;;;;;;3.00;2.80;;;;;;;;;;1660378;29;21825;-57
2022/07/26 04:45:57;;;;;;;3.40;2.85;;;;;;;;;;1661614;29;22536;-57
2022/07/26 04:46:48;;;;;;;6.97;2.47;;;;;;;;;;1659007;29;22491;-58
2022/07/26 04:47:42;;;;;;;5.22;2.83;;;;;;;;;;1660082;29;21613;-58
2022/07/26 04:48:35;;;;;;;3.30;2.78;;;;;;;;;;1661385;29;21753;-57
2022/07/26 04:49:26;;;;;;;2.53;2.33;;;;;;;;;;1659019;29;21607;-58
2022/07/26 04:50:19;;;;;;;3.20;3.00;;;;;;;;;;1660626;29;21757;-57
2022/07/26 04:51:11;;;;;;;3.10;2.50;;;;;;;;;;1660288;29;21693;-58
2022/07/26 04:52:03;;;;;;;2.95;2.75;;;;;;;;;;1658747;29;21671;-57
2022/07/26 04:52:55;;;;;;;2.65;2.47;;;;;;;;;;1659292;29;22606;-57
2022/07/26 04:53:46;;;;;;;2.83;2.63;;;;;;;;;;1661326;29;21601;-57
2022/07/26 04:54:39;;;;;;;3.15;2.95;;;;;;;;;;1659827;29;21761;-58
2022/07/26 04:55:31;;;;;;;2.97;2.53;;;;;;;;;;1658316;29;22444;-57
2022/07/26 04:56:22;;;;;;;2.70;2.50;;;;;;;;;;1661500;29;21772;-57
2022/07/26 04:57:14;;;;;;;2.42;2.22;;;;;;;;;;1660480;29;22371;-58
2022/07/26 04:58:06;;;;;;;2.95;2.70;;;;;;;;;;1657626;29;21607;-56
2022/07/26 04:58:58;;;;;;;2.97;2.78;;;;;;;;;;1661567;29;21779;-58
2022/07/26 04:59:51;;;;;;;3.05;2.78;;;;;;;;;;1660552;29;22097;-58
2022/07/26 05:00:43;;;;;;;2.80;2.60;;;;;;;;;;1657778;29;21625;-58
2022/07/26 05:01:34;;;;;;;6.25;2.78;;;;;;;;;;1659785;29;21817;-57
2022/07/26 05:02:27;;;;;;;2.70;2.55;;;;;;;;;;1656621;29;21961;-58
2022/07/26 05:03:20;;;;;;;3.05;2.85;;;;;;;;;;1658107;29;21607;-58
2022/07/26 05:04:13;;;;;;;2.85;2.63;;;;;;;;;;1661311;29;22173;-58
2022/07/26 05:05:06;;;;;;;2.80;2.60;;;;;;;;;;1660509;29;22225;-58
2022/07/26 05:05:58;;;;;;;3.42;2.40;;;;;;;;;;1658139;29;21591;-58
2022/07/26 05:06:49;;;;;;;2.38;2.17;;;;;;;;;;1661323;29;22030;-58
2022/07/26 05:07:42;;;;;;;2.60;2.40;;;;;;;;;;1659963;29;22298;-58
2022/07/26 05:08:33;;;;;;;2.92;2.72;;;;;;;;;;1657959;29;21681;-57
2022/07/26 05:09:25;;;;;;;2.60;2.40;;;;;;;;;;1661835;29;22574;-57
2022/07/26 05:10:18;;;;;;;4.07;2.30;;;;;;;;;;1661575;29;22043;-58
2022/07/26 05:11:10;;;;;;;2.88;2.67;;;;;;;;;;1658410;29;21782;-58
2022/07/26 05:12:02;;;;;;;2.72;2.53;;;;;;;;;;1657727;29;22405;-56
2022/07/26 05:12:54;;;;;;;2.53;2.42;;;;;;;;;;1662188;29;21615;-58
2022/07/26 05:13:45;;;;;;;2.75;2.55;;;;;;;;;;1659263;29;22677;-57
2022/07/26 05:14:38;;;;;;;4.60;2.63;;;;;;;;;;1657953;29;22244;-58